This is the latest recevied weather packets stored in our database for station/object DD3UTS-13. If no packets are shown the sender has not sent any weather packets the latest 10 day(s).
| Time | Temp. | Humidity | Pressure | Rain* | Wind** | Luminosity | Snow |
|---|---|---|---|---|---|---|---|
| 1778089834 | 18.33° C | 61% | 1004.6 hPa | 0 mm | - | 64 W/m² | - |
| 1778089532 | 18.33° C | 60% | 1004.6 hPa | 0 mm | - | 51 W/m² | - |
| 1778089232 | 18.33° C | 59% | 1004.6 hPa | 0 mm | - | 138 W/m² | - |
| 1778088932 | 18.89° C | 59% | 1004.5 hPa | 0 mm | - | 148 W/m² | - |
| 1778088631 | 18.89° C | 58% | 1004.5 hPa | 0 mm | - | 196 W/m² | - |
| 1778088333 | 18.89° C | 58% | 1004.5 hPa | 0 mm | - | 199 W/m² | - |
| 1778088032 | 18.89° C | 58% | 1004.4 hPa | 0 mm | - | 219 W/m² | - |
| 1778087731 | 18.89° C | 57% | 1004.4 hPa | 0 mm | - | 141 W/m² | - |
| 1778087432 | 18.89° C | 57% | 1004.4 hPa | 0 mm | - | 129 W/m² | - |
| 1778087131 | 18.89° C | 57% | 1004.2 hPa | 0 mm | - | 108 W/m² | - |
| 1778086832 | 19.44° C | 56% | 1004.2 hPa | 0 mm | - | 101 W/m² | - |
| 1778086532 | 19.44° C | 55% | 1004.2 hPa | 0 mm | - | 150 W/m² | - |
| 1778086232 | 20.56° C | 53% | 1004.2 hPa | 0 mm | - | 108 W/m² | - |
| 1778085932 | 20.56° C | 52% | 1004.2 hPa | 0 mm | - | 116 W/m² | - |
| 1778085632 | 21.11° C | 52% | 1004.4 hPa | 0 mm | - | 259 W/m² | - |
| 1778085332 | 21.67° C | 51% | 1004.7 hPa | 0 mm | - | 475 W/m² | - |
| 1778085031 | 21.67° C | 51% | 1004.7 hPa | 0 mm | - | 490 W/m² | - |
| 1778084731 | 21.67° C | 51% | 1004.7 hPa | 0 mm | - | 500 W/m² | - |
| 1778084132 | 21.11° C | 53% | 1004.8 hPa | 0 mm | - | 525 W/m² | - |
| 1778083832 | 21.11° C | 53% | 1004.8 hPa | 0 mm | - | 526 W/m² | - |
| 1778083533 | 20.56° C | 55% | 1004.9 hPa | 0 mm | - | 526 W/m² | - |
| 1778083232 | 20.56° C | 54% | 1004.9 hPa | 0 mm | - | 545 W/m² | - |
| 1778082932 | 20° C | 55% | 1005 hPa | 0 mm | - | 570 W/m² | - |
| 1778082632 | 20° C | 55% | 1005 hPa | 0 mm | - | 450 W/m² | - |
| 1778082332 | 20° C | 56% | 1005 hPa | 0 mm | - | 394 W/m² | - |
* Rain latest 24 hours (hover to see other rain measurements)
** Current wind speed in m/s (hover to see current wind gust speed)